sensor_id;sensor_type;location;lat;lon;timestamp;pressure;altitude;pressure_sealevel;temperature;humidity
85758;BME280;76202;52.626;4.746;2024-03-08T00:01:53;101843.81;;;13.96;72.91
85758;BME280;76202;52.626;4.746;2024-03-08T00:04:22;101848.56;;;14.09;72.66
85758;BME280;76202;52.626;4.746;2024-03-08T00:06:47;101839.88;;;14.07;72.99
85758;BME280;76202;52.626;4.746;2024-03-08T00:09:13;101840.69;;;13.93;73.25
85758;BME280;76202;52.626;4.746;2024-03-08T00:11:39;101838.56;;;14.03;73.06
85758;BME280;76202;52.626;4.746;2024-03-08T00:14:04;101832.81;;;14.06;72.87
85758;BME280;76202;52.626;4.746;2024-03-08T00:16:33;101836.06;;;14.02;72.99
85758;BME280;76202;52.626;4.746;2024-03-08T00:18:59;101833.09;;;14.11;72.48
85758;BME280;76202;52.626;4.746;2024-03-08T00:21:25;101833.75;;;14.13;72.66
85758;BME280;76202;52.626;4.746;2024-03-08T00:23:52;101830.31;;;14.05;71.71
85758;BME280;76202;52.626;4.746;2024-03-08T00:26:19;101831.22;;;14.12;72.42
85758;BME280;76202;52.626;4.746;2024-03-08T00:28:44;101823.63;;;14.15;71.89
85758;BME280;76202;52.626;4.746;2024-03-08T00:31:10;101819.72;;;14.03;72.63
85758;BME280;76202;52.626;4.746;2024-03-08T00:33:36;101821.88;;;14.08;72.79
85758;BME280;76202;52.626;4.746;2024-03-08T00:36:02;101814.91;;;13.98;72.72
85758;BME280;76202;52.626;4.746;2024-03-08T00:38:27;101819.34;;;14.06;72.40
85758;BME280;76202;52.626;4.746;2024-03-08T00:40:53;101811.50;;;14.05;71.94
85758;BME280;76202;52.626;4.746;2024-03-08T00:43:18;101813.34;;;14.04;72.45
85758;BME280;76202;52.626;4.746;2024-03-08T00:45:44;101811.38;;;13.98;72.78
85758;BME280;76202;52.626;4.746;2024-03-08T00:48:09;101804.91;;;14.07;72.38
85758;BME280;76202;52.626;4.746;2024-03-08T00:50:36;101794.88;;;14.01;72.39
85758;BME280;76202;52.626;4.746;2024-03-08T00:53:02;101798.78;;;13.98;72.06
85758;BME280;76202;52.626;4.746;2024-03-08T00:55:30;101796.25;;;13.82;71.57
85758;BME280;76202;52.626;4.746;2024-03-08T00:57:56;101791.06;;;13.95;72.73
85758;BME280;76202;52.626;4.746;2024-03-08T01:00:22;101789.75;;;13.91;72.99
85758;BME280;76202;52.626;4.746;2024-03-08T01:02:47;101779.00;;;13.91;72.21
85758;BME280;76202;52.626;4.746;2024-03-08T01:05:13;101780.78;;;13.99;72.60
85758;BME280;76202;52.626;4.746;2024-03-08T01:07:38;101774.47;;;13.92;72.34
85758;BME280;76202;52.626;4.746;2024-03-08T01:10:04;101766.59;;;13.90;72.26
85758;BME280;76202;52.626;4.746;2024-03-08T01:12:34;101772.03;;;13.97;72.35
85758;BME280;76202;52.626;4.746;2024-03-08T01:15:00;101773.09;;;13.96;72.60
85758;BME280;76202;52.626;4.746;2024-03-08T01:17:25;101768.09;;;13.93;72.07
85758;BME280;76202;52.626;4.746;2024-03-08T01:19:52;101759.06;;;14.01;71.71
85758;BME280;76202;52.626;4.746;2024-03-08T01:22:18;101762.59;;;14.01;72.64
85758;BME280;76202;52.626;4.746;2024-03-08T01:24:44;101746.56;;;13.93;72.46
85758;BME280;76202;52.626;4.746;2024-03-08T01:27:09;101744.41;;;14.03;73.45
85758;BME280;76202;52.626;4.746;2024-03-08T01:29:34;101746.09;;;13.89;72.52
85758;BME280;76202;52.626;4.746;2024-03-08T01:32:00;101741.63;;;13.96;72.59
85758;BME280;76202;52.626;4.746;2024-03-08T01:34:27;101734.59;;;13.95;72.35
85758;BME280;76202;52.626;4.746;2024-03-08T01:36:54;101724.69;;;13.96;72.44
85758;BME280;76202;52.626;4.746;2024-03-08T01:39:21;101726.34;;;13.97;72.70
85758;BME280;76202;52.626;4.746;2024-03-08T01:41:47;101729.50;;;14.01;72.77
85758;BME280;76202;52.626;4.746;2024-03-08T01:44:14;101716.41;;;13.97;72.09
85758;BME280;76202;52.626;4.746;2024-03-08T01:46:47;101721.06;;;13.89;72.58
85758;BME280;76202;52.626;4.746;2024-03-08T01:49:13;101711.25;;;13.81;72.28
85758;BME280;76202;52.626;4.746;2024-03-08T01:51:40;101718.47;;;13.95;72.63
85758;BME280;76202;52.626;4.746;2024-03-08T01:54:06;101712.16;;;13.88;71.85
85758;BME280;76202;52.626;4.746;2024-03-08T01:56:35;101709.56;;;13.95;72.33
85758;BME280;76202;52.626;4.746;2024-03-08T01:59:01;101710.94;;;13.91;73.04
85758;BME280;76202;52.626;4.746;2024-03-08T02:01:27;101699.66;;;13.81;71.96
85758;BME280;76202;52.626;4.746;2024-03-08T02:03:53;101700.28;;;13.83;73.50
85758;BME280;76202;52.626;4.746;2024-03-08T02:06:19;101696.38;;;13.85;73.12
85758;BME280;76202;52.626;4.746;2024-03-08T02:08:45;101688.31;;;13.85;74.43
85758;BME280;76202;52.626;4.746;2024-03-08T02:11:11;101692.84;;;13.85;73.52
85758;BME280;76202;52.626;4.746;2024-03-08T02:13:36;101697.81;;;13.81;73.44
85758;BME280;76202;52.626;4.746;2024-03-08T02:16:02;101695.53;;;13.85;73.96
85758;BME280;76202;52.626;4.746;2024-03-08T02:18:29;101693.22;;;13.82;72.82
85758;BME280;76202;52.626;4.746;2024-03-08T02:20:59;101689.00;;;13.87;73.70
85758;BME280;76202;52.626;4.746;2024-03-08T02:23:25;101686.94;;;13.75;73.24
85758;BME280;76202;52.626;4.746;2024-03-08T02:25:51;101683.69;;;13.79;73.92
85758;BME280;76202;52.626;4.746;2024-03-08T02:28:17;101685.53;;;13.79;73.68
85758;BME280;76202;52.626;4.746;2024-03-08T02:30:49;101685.16;;;13.82;73.82
85758;BME280;76202;52.626;4.746;2024-03-08T02:33:21;101680.63;;;13.82;73.38
85758;BME280;76202;52.626;4.746;2024-03-08T02:35:48;101676.47;;;13.80;73.21
85758;BME280;76202;52.626;4.746;2024-03-08T02:38:18;101676.81;;;13.77;73.35
85758;BME280;76202;52.626;4.746;2024-03-08T02:40:45;101669.41;;;13.79;74.44
85758;BME280;76202;52.626;4.746;2024-03-08T02:43:11;101658.38;;;13.74;73.44
85758;BME280;76202;52.626;4.746;2024-03-08T02:45:38;101657.63;;;13.80;73.80
85758;BME280;76202;52.626;4.746;2024-03-08T02:48:04;101654.31;;;13.78;73.79
85758;BME280;76202;52.626;4.746;2024-03-08T02:50:32;101645.22;;;13.79;73.57
85758;BME280;76202;52.626;4.746;2024-03-08T02:52:57;101648.84;;;13.71;73.35
85758;BME280;76202;52.626;4.746;2024-03-08T02:55:23;101640.88;;;13.63;73.32
85758;BME280;76202;52.626;4.746;2024-03-08T02:57:51;101639.56;;;13.74;73.59
85758;BME280;76202;52.626;4.746;2024-03-08T03:00:16;101634.38;;;13.72;73.92
85758;BME280;76202;52.626;4.746;2024-03-08T03:02:44;101634.38;;;13.72;73.36
85758;BME280;76202;52.626;4.746;2024-03-08T03:05:10;101636.50;;;13.77;73.95
85758;BME280;76202;52.626;4.746;2024-03-08T03:07:37;101632.13;;;13.76;73.29
85758;BME280;76202;52.626;4.746;2024-03-08T03:10:02;101629.75;;;13.66;73.80
85758;BME280;76202;52.626;4.746;2024-03-08T03:12:28;101624.66;;;13.71;74.01
85758;BME280;76202;52.626;4.746;2024-03-08T03:14:54;101623.81;;;13.71;74.08
85758;BME280;76202;52.626;4.746;2024-03-08T03:17:22;101618.06;;;13.74;73.27
85758;BME280;76202;52.626;4.746;2024-03-08T03:19:48;101620.66;;;13.67;72.90
85758;BME280;76202;52.626;4.746;2024-03-08T03:22:13;101622.44;;;13.60;73.71
85758;BME280;76202;52.626;4.746;2024-03-08T03:24:41;101615.47;;;13.66;73.26
85758;BME280;76202;52.626;4.746;2024-03-08T03:27:07;101606.38;;;13.52;73.25
85758;BME280;76202;52.626;4.746;2024-03-08T03:29:37;101612.59;;;13.67;73.39
85758;BME280;76202;52.626;4.746;2024-03-08T03:32:03;101601.94;;;13.59;73.67
85758;BME280;76202;52.626;4.746;2024-03-08T03:34:29;101605.47;;;13.60;73.25
85758;BME280;76202;52.626;4.746;2024-03-08T03:36:54;101602.53;;;13.55;73.06
85758;BME280;76202;52.626;4.746;2024-03-08T03:39:21;101588.50;;;13.59;74.13
85758;BME280;76202;52.626;4.746;2024-03-08T03:41:48;101595.34;;;13.62;73.75
85758;BME280;76202;52.626;4.746;2024-03-08T03:44:17;101589.16;;;13.61;73.20
85758;BME280;76202;52.626;4.746;2024-03-08T03:46:43;101592.66;;;13.62;73.54
85758;BME280;76202;52.626;4.746;2024-03-08T03:49:12;101591.78;;;13.55;74.38
85758;BME280;76202;52.626;4.746;2024-03-08T03:51:37;101582.28;;;13.59;72.99
85758;BME280;76202;52.626;4.746;2024-03-08T03:54:03;101588.88;;;13.56;73.80
85758;BME280;76202;52.626;4.746;2024-03-08T03:56:29;101585.94;;;13.51;74.31
85758;BME280;76202;52.626;4.746;2024-03-08T03:58:55;101583.13;;;13.59;73.02
85758;BME280;76202;52.626;4.746;2024-03-08T04:01:21;101575.91;;;13.45;73.79
85758;BME280;76202;52.626;4.746;2024-03-08T04:03:47;101579.25;;;13.47;73.86
85758;BME280;76202;52.626;4.746;2024-03-08T04:06:12;101582.66;;;13.56;73.93
85758;BME280;76202;52.626;4.746;2024-03-08T04:08:38;101578.97;;;13.57;73.73
85758;BME280;76202;52.626;4.746;2024-03-08T04:11:03;101574.34;;;13.51;73.95
85758;BME280;76202;52.626;4.746;2024-03-08T04:13:29;101571.66;;;13.51;73.21
85758;BME280;76202;52.626;4.746;2024-03-08T04:15:54;101576.28;;;13.57;73.68
85758;BME280;76202;52.626;4.746;2024-03-08T04:18:20;101568.75;;;13.52;73.76
85758;BME280;76202;52.626;4.746;2024-03-08T04:20:45;101569.34;;;13.48;73.54
85758;BME280;76202;52.626;4.746;2024-03-08T04:23:11;101571.44;;;13.52;73.65
85758;BME280;76202;52.626;4.746;2024-03-08T04:25:37;101566.06;;;13.52;73.15
85758;BME280;76202;52.626;4.746;2024-03-08T04:28:03;101569.44;;;13.54;73.96
85758;BME280;76202;52.626;4.746;2024-03-08T04:30:28;101568.97;;;13.51;73.29
85758;BME280;76202;52.626;4.746;2024-03-08T04:32:55;101561.09;;;13.49;72.86
85758;BME280;76202;52.626;4.746;2024-03-08T04:35:20;101564.81;;;13.48;72.42
85758;BME280;76202;52.626;4.746;2024-03-08T04:37:46;101560.19;;;13.42;73.06
85758;BME280;76202;52.626;4.746;2024-03-08T04:40:11;101557.28;;;13.43;73.73
85758;BME280;76202;52.626;4.746;2024-03-08T04:42:37;101556.38;;;13.51;72.81
85758;BME280;76202;52.626;4.746;2024-03-08T04:45:04;101564.44;;;13.51;73.61
85758;BME280;76202;52.626;4.746;2024-03-08T04:47:30;101557.84;;;13.54;72.93
85758;BME280;76202;52.626;4.746;2024-03-08T04:49:56;101554.31;;;13.53;73.08
85758;BME280;76202;52.626;4.746;2024-03-08T04:52:22;101557.13;;;13.45;73.00
85758;BME280;76202;52.626;4.746;2024-03-08T04:54:47;101555.91;;;13.48;72.87
85758;BME280;76202;52.626;4.746;2024-03-08T04:57:13;101562.94;;;13.49;72.91
85758;BME280;76202;52.626;4.746;2024-03-08T04:59:39;101561.75;;;13.51;73.40
85758;BME280;76202;52.626;4.746;2024-03-08T05:02:05;101554.53;;;13.52;72.37
85758;BME280;76202;52.626;4.746;2024-03-08T05:04:32;101553.47;;;13.53;72.74
85758;BME280;76202;52.626;4.746;2024-03-08T05:06:57;101543.31;;;13.48;72.64
85758;BME280;76202;52.626;4.746;2024-03-08T05:09:26;101550.72;;;13.46;72.85
85758;BME280;76202;52.626;4.746;2024-03-08T05:11:52;101544.44;;;13.39;73.38
85758;BME280;76202;52.626;4.746;2024-03-08T05:14:17;101545.91;;;13.41;73.44
85758;BME280;76202;52.626;4.746;2024-03-08T05:16:46;101550.44;;;13.41;72.71
85758;BME280;76202;52.626;4.746;2024-03-08T05:19:15;101544.16;;;13.34;72.95
85758;BME280;76202;52.626;4.746;2024-03-08T05:21:44;101536.53;;;13.37;72.15
85758;BME280;76202;52.626;4.746;2024-03-08T05:24:11;101540.25;;;13.36;73.24
85758;BME280;76202;52.626;4.746;2024-03-08T05:26:37;101541.00;;;13.30;73.17
85758;BME280;76202;52.626;4.746;2024-03-08T05:29:05;101537.38;;;13.38;73.03
85758;BME280;76202;52.626;4.746;2024-03-08T05:31:38;101526.53;;;13.31;72.56
85758;BME280;76202;52.626;4.746;2024-03-08T05:34:03;101527.56;;;13.30;72.55
85758;BME280;76202;52.626;4.746;2024-03-08T05:36:29;101533.50;;;13.26;72.84
85758;BME280;76202;52.626;4.746;2024-03-08T05:38:55;101539.06;;;13.39;73.29
85758;BME280;76202;52.626;4.746;2024-03-08T05:41:20;101524.78;;;13.38;73.29
85758;BME280;76202;52.626;4.746;2024-03-08T05:43:46;101534.88;;;13.36;72.48
85758;BME280;76202;52.626;4.746;2024-03-08T05:46:15;101532.13;;;13.30;73.08
85758;BME280;76202;52.626;4.746;2024-03-08T05:48:40;101543.50;;;13.32;73.02
85758;BME280;76202;52.626;4.746;2024-03-08T05:51:06;101528.22;;;13.18;72.81
85758;BME280;76202;52.626;4.746;2024-03-08T05:53:31;101533.59;;;13.32;74.02
85758;BME280;76202;52.626;4.746;2024-03-08T05:55:57;101530.16;;;13.24;73.29
85758;BME280;76202;52.626;4.746;2024-03-08T05:58:23;101519.78;;;13.21;73.92
85758;BME280;76202;52.626;4.746;2024-03-08T06:00:49;101530.06;;;13.17;73.81
85758;BME280;76202;52.626;4.746;2024-03-08T06:03:15;101522.09;;;13.24;73.37
85758;BME280;76202;52.626;4.746;2024-03-08T06:05:40;101521.66;;;13.20;73.22
85758;BME280;76202;52.626;4.746;2024-03-08T06:08:07;101524.44;;;13.27;73.05
85758;BME280;76202;52.626;4.746;2024-03-08T06:10:33;101517.13;;;13.21;73.14
85758;BME280;76202;52.626;4.746;2024-03-08T06:12:59;101519.31;;;13.17;73.00
85758;BME280;76202;52.626;4.746;2024-03-08T06:15:25;101514.53;;;13.27;73.17
85758;BME280;76202;52.626;4.746;2024-03-08T06:17:51;101511.19;;;13.25;73.76
85758;BME280;76202;52.626;4.746;2024-03-08T06:20:18;101516.00;;;13.30;72.97
85758;BME280;76202;52.626;4.746;2024-03-08T06:22:43;101508.56;;;13.32;73.37
85758;BME280;76202;52.626;4.746;2024-03-08T06:25:11;101505.50;;;13.35;74.01
85758;BME280;76202;52.626;4.746;2024-03-08T06:27:42;101497.38;;;13.28;73.09
85758;BME280;76202;52.626;4.746;2024-03-08T06:30:09;101500.72;;;13.16;73.72
85758;BME280;76202;52.626;4.746;2024-03-08T06:32:35;101507.09;;;13.29;73.87
85758;BME280;76202;52.626;4.746;2024-03-08T06:35:02;101498.88;;;13.31;73.51
85758;BME280;76202;52.626;4.746;2024-03-08T06:37:30;101496.53;;;13.43;73.94
85758;BME280;76202;52.626;4.746;2024-03-08T06:39:56;101501.47;;;13.24;73.95
85758;BME280;76202;52.626;4.746;2024-03-08T06:42:22;101496.06;;;13.39;74.29
85758;BME280;76202;52.626;4.746;2024-03-08T06:44:47;101504.28;;;13.37;73.71
85758;BME280;76202;52.626;4.746;2024-03-08T06:47:16;101491.41;;;13.48;73.50
85758;BME280;76202;52.626;4.746;2024-03-08T06:49:42;101493.81;;;13.57;73.78
85758;BME280;76202;52.626;4.746;2024-03-08T06:52:09;101498.81;;;13.60;72.78
85758;BME280;76202;52.626;4.746;2024-03-08T06:54:35;101499.81;;;13.59;73.23
85758;BME280;76202;52.626;4.746;2024-03-08T06:57:05;101494.81;;;13.56;72.56
85758;BME280;76202;52.626;4.746;2024-03-08T06:59:33;101483.06;;;13.57;73.64
85758;BME280;76202;52.626;4.746;2024-03-08T07:02:01;101489.31;;;13.64;72.57
85758;BME280;76202;52.626;4.746;2024-03-08T07:04:29;101494.66;;;13.79;73.38
85758;BME280;76202;52.626;4.746;2024-03-08T07:06:58;101490.31;;;13.78;72.21
85758;BME280;76202;52.626;4.746;2024-03-08T07:09:24;101502.63;;;13.87;73.07
85758;BME280;76202;52.626;4.746;2024-03-08T07:11:50;101500.94;;;13.86;72.60
85758;BME280;76202;52.626;4.746;2024-03-08T07:14:23;101489.22;;;13.93;73.13
85758;BME280;76202;52.626;4.746;2024-03-08T07:16:50;101486.97;;;13.97;72.60
85758;BME280;76202;52.626;4.746;2024-03-08T07:19:17;101493.41;;;13.96;72.18
85758;BME280;76202;52.626;4.746;2024-03-08T07:21:43;101485.44;;;13.88;71.89
85758;BME280;76202;52.626;4.746;2024-03-08T07:24:10;101493.66;;;14.01;73.07
85758;BME280;76202;52.626;4.746;2024-03-08T07:26:53;101486.72;;;14.13;72.71
85758;BME280;76202;52.626;4.746;2024-03-08T07:29:19;101482.38;;;14.12;71.58
85758;BME280;76202;52.626;4.746;2024-03-08T07:31:44;101485.56;;;14.22;71.77
85758;BME280;76202;52.626;4.746;2024-03-08T07:34:16;101488.91;;;14.24;71.88
85758;BME280;76202;52.626;4.746;2024-03-08T07:36:42;101483.56;;;14.31;71.87
85758;BME280;76202;52.626;4.746;2024-03-08T07:39:07;101478.38;;;14.29;70.23
85758;BME280;76202;52.626;4.746;2024-03-08T07:41:37;101466.69;;;14.37;71.14
85758;BME280;76202;52.626;4.746;2024-03-08T07:44:03;101479.75;;;14.40;71.86
85758;BME280;76202;52.626;4.746;2024-03-08T07:46:30;101478.28;;;14.37;70.36
85758;BME280;76202;52.626;4.746;2024-03-08T07:48:56;101467.38;;;14.45;71.33
85758;BME280;76202;52.626;4.746;2024-03-08T07:51:21;101468.66;;;14.49;70.81
85758;BME280;76202;52.626;4.746;2024-03-08T07:53:47;101467.22;;;14.53;70.95
85758;BME280;76202;52.626;4.746;2024-03-08T07:56:12;101468.00;;;14.47;70.79
85758;BME280;76202;52.626;4.746;2024-03-08T07:58:39;101451.94;;;14.61;70.10
85758;BME280;76202;52.626;4.746;2024-03-08T08:01:06;101461.25;;;14.58;70.80
85758;BME280;76202;52.626;4.746;2024-03-08T08:03:31;101451.75;;;14.62;70.85
85758;BME280;76202;52.626;4.746;2024-03-08T08:05:57;101448.88;;;14.64;69.87
85758;BME280;76202;52.626;4.746;2024-03-08T08:08:22;101444.09;;;14.66;70.08
85758;BME280;76202;52.626;4.746;2024-03-08T08:10:48;101443.03;;;14.60;69.74
85758;BME280;76202;52.626;4.746;2024-03-08T08:13:14;101439.75;;;14.65;69.88
85758;BME280;76202;52.626;4.746;2024-03-08T08:15:40;101438.16;;;14.70;69.72
85758;BME280;76202;52.626;4.746;2024-03-08T08:18:06;101434.41;;;14.71;68.91
85758;BME280;76202;52.626;4.746;2024-03-08T08:20:35;101435.84;;;14.74;68.94
85758;BME280;76202;52.626;4.746;2024-03-08T08:23:00;101441.28;;;14.80;68.83
85758;BME280;76202;52.626;4.746;2024-03-08T08:25:25;101432.25;;;14.88;69.73
85758;BME280;76202;52.626;4.746;2024-03-08T08:27:51;101439.09;;;14.90;69.37
85758;BME280;76202;52.626;4.746;2024-03-08T08:30:20;101426.03;;;14.94;68.67
85758;BME280;76202;52.626;4.746;2024-03-08T08:32:46;101427.91;;;15.00;68.89
85758;BME280;76202;52.626;4.746;2024-03-08T08:35:13;101421.50;;;15.01;67.87
85758;BME280;76202;52.626;4.746;2024-03-08T08:37:39;101425.47;;;15.05;68.17
85758;BME280;76202;52.626;4.746;2024-03-08T08:40:05;101432.09;;;15.09;67.73
85758;BME280;76202;52.626;4.746;2024-03-08T08:42:34;101425.69;;;15.10;68.32
85758;BME280;76202;52.626;4.746;2024-03-08T08:44:59;101432.09;;;15.09;67.52
85758;BME280;76202;52.626;4.746;2024-03-08T08:47:24;101423.03;;;15.17;67.31
85758;BME280;76202;52.626;4.746;2024-03-08T08:49:50;101422.41;;;15.21;68.12
85758;BME280;76202;52.626;4.746;2024-03-08T08:52:16;101413.13;;;15.30;68.28
85758;BME280;76202;52.626;4.746;2024-03-08T08:54:43;101417.69;;;15.30;66.71
85758;BME280;76202;52.626;4.746;2024-03-08T08:57:09;101423.50;;;15.33;67.21
85758;BME280;76202;52.626;4.746;2024-03-08T08:59:35;101417.50;;;15.44;67.90
85758;BME280;76202;52.626;4.746;2024-03-08T09:02:06;101410.06;;;15.46;67.55
85758;BME280;76202;52.626;4.746;2024-03-08T09:04:32;101400.16;;;15.53;66.91
85758;BME280;76202;52.626;4.746;2024-03-08T09:06:57;101397.06;;;15.50;66.40
85758;BME280;76202;52.626;4.746;2024-03-08T09:09:23;101400.56;;;15.57;66.83
85758;BME280;76202;52.626;4.746;2024-03-08T09:11:51;101397.69;;;15.58;66.67
85758;BME280;76202;52.626;4.746;2024-03-08T09:14:16;101394.34;;;15.63;66.34
85758;BME280;76202;52.626;4.746;2024-03-08T09:16:42;101391.47;;;15.58;65.31
85758;BME280;76202;52.626;4.746;2024-03-08T09:19:07;101388.13;;;15.62;66.41
85758;BME280;76202;52.626;4.746;2024-03-08T09:21:33;101380.03;;;15.62;66.00
85758;BME280;76202;52.626;4.746;2024-03-08T09:24:00;101373.63;;;15.63;65.29
85758;BME280;76202;52.626;4.746;2024-03-08T09:26:26;101376.13;;;15.72;66.09
85758;BME280;76202;52.626;4.746;2024-03-08T09:28:52;101377.16;;;15.77;65.58
85758;BME280;76202;52.626;4.746;2024-03-08T09:31:20;101365.75;;;15.75;65.15
85758;BME280;76202;52.626;4.746;2024-03-08T09:33:45;101363.47;;;15.72;65.73
85758;BME280;76202;52.626;4.746;2024-03-08T09:36:13;101350.63;;;15.68;65.10
85758;BME280;76202;52.626;4.746;2024-03-08T09:38:39;101346.88;;;15.69;64.25
85758;BME280;76202;52.626;4.746;2024-03-08T09:41:05;101345.22;;;15.68;65.50
85758;BME280;76202;52.626;4.746;2024-03-08T09:43:31;101334.22;;;15.69;64.85
85758;BME280;76202;52.626;4.746;2024-03-08T09:45:57;101332.13;;;15.71;65.11
85758;BME280;76202;52.626;4.746;2024-03-08T09:48:23;101325.50;;;15.74;64.87
85758;BME280;76202;52.626;4.746;2024-03-08T09:50:48;101326.75;;;15.71;64.43
85758;BME280;76202;52.626;4.746;2024-03-08T09:53:14;101317.00;;;15.70;64.84
85758;BME280;76202;52.626;4.746;2024-03-08T09:55:40;101324.47;;;15.75;64.23
85758;BME280;76202;52.626;4.746;2024-03-08T09:58:12;101308.69;;;15.72;64.91
85758;BME280;76202;52.626;4.746;2024-03-08T10:00:53;101309.53;;;15.72;64.25
85758;BME280;76202;52.626;4.746;2024-03-08T10:03:19;101295.44;;;15.70;63.68
85758;BME280;76202;52.626;4.746;2024-03-08T10:05:45;101302.69;;;15.70;63.86
85758;BME280;76202;52.626;4.746;2024-03-08T10:08:11;101310.16;;;15.68;63.77
85758;BME280;76202;52.626;4.746;2024-03-08T10:10:38;101305.16;;;15.78;63.63
85758;BME280;76202;52.626;4.746;2024-03-08T10:13:08;101315.31;;;15.95;64.21
85758;BME280;76202;52.626;4.746;2024-03-08T10:15:34;101305.38;;;15.83;63.30
85758;BME280;76202;52.626;4.746;2024-03-08T10:18:00;101302.28;;;15.73;62.18
85758;BME280;76202;52.626;4.746;2024-03-08T10:20:27;101287.75;;;15.60;64.56
85758;BME280;76202;52.626;4.746;2024-03-08T10:22:59;101292.13;;;15.61;64.37
85758;BME280;76202;52.626;4.746;2024-03-08T10:25:25;101298.31;;;15.62;65.60
85758;BME280;76202;52.626;4.746;2024-03-08T10:27:52;101292.13;;;15.61;65.36
85758;BME280;76202;52.626;4.746;2024-03-08T10:30:17;101284.44;;;15.58;64.78
85758;BME280;76202;52.626;4.746;2024-03-08T10:32:45;101280.06;;;15.51;65.24
85758;BME280;76202;52.626;4.746;2024-03-08T10:35:10;101280.91;;;15.51;64.81
85758;BME280;76202;52.626;4.746;2024-03-08T10:37:48;101268.22;;;15.45;63.89
85758;BME280;76202;52.626;4.746;2024-03-08T10:40:29;101271.56;;;15.41;64.93
85758;BME280;76202;52.626;4.746;2024-03-08T10:42:56;101270.31;;;15.37;64.42
85758;BME280;76202;52.626;4.746;2024-03-08T10:47:57;101253.28;;;15.30;66.00
85758;BME280;76202;52.626;4.746;2024-03-08T10:50:24;101244.59;;;15.28;65.06
85758;BME280;76202;52.626;4.746;2024-03-08T10:52:52;101238.34;;;15.21;64.74
85758;BME280;76202;52.626;4.746;2024-03-08T10:55:18;101240.25;;;15.20;64.57
85758;BME280;76202;52.626;4.746;2024-03-08T10:57:46;101232.56;;;15.17;64.92
85758;BME280;76202;52.626;4.746;2024-03-08T11:00:13;101226.34;;;15.10;64.33
85758;BME280;76202;52.626;4.746;2024-03-08T11:02:43;101237.53;;;15.07;64.84
85758;BME280;76202;52.626;4.746;2024-03-08T11:05:31;101217.41;;;15.03;66.03
85758;BME280;76202;52.626;4.746;2024-03-08T11:08:01;101220.31;;;15.01;65.35
85758;BME280;76202;52.626;4.746;2024-03-08T11:10:28;101212.25;;;15.01;66.36
85758;BME280;76202;52.626;4.746;2024-03-08T11:12:54;101213.25;;;15.00;65.63
85758;BME280;76202;52.626;4.746;2024-03-08T11:15:19;101209.09;;;14.91;65.18
85758;BME280;76202;52.626;4.746;2024-03-08T11:17:46;101201.66;;;14.87;64.86
85758;BME280;76202;52.626;4.746;2024-03-08T11:20:14;101198.75;;;14.88;65.06
85758;BME280;76202;52.626;4.746;2024-03-08T11:23:00;101195.66;;;14.85;65.04
85758;BME280;76202;52.626;4.746;2024-03-08T11:25:32;101202.69;;;14.86;65.54
85758;BME280;76202;52.626;4.746;2024-03-08T11:28:17;101184.03;;;14.78;66.33
85758;BME280;76202;52.626;4.746;2024-03-08T11:33:31;101174.94;;;14.79;65.58
85758;BME280;76202;52.626;4.746;2024-03-08T11:38:32;101170.16;;;14.74;66.09
85758;BME280;76202;52.626;4.746;2024-03-08T11:40:58;101166.44;;;14.75;66.12
85758;BME280;76202;52.626;4.746;2024-03-08T11:43:23;101155.44;;;14.70;65.51
85758;BME280;76202;52.626;4.746;2024-03-08T11:45:50;101164.97;;;14.66;66.00
85758;BME280;76202;52.626;4.746;2024-03-08T11:48:18;101151.50;;;14.66;65.94
85758;BME280;76202;52.626;4.746;2024-03-08T11:50:43;101143.63;;;14.58;65.72
85758;BME280;76202;52.626;4.746;2024-03-08T11:53:09;101133.69;;;14.65;67.31
85758;BME280;76202;52.626;4.746;2024-03-08T11:55:35;101135.94;;;14.62;65.60
85758;BME280;76202;52.626;4.746;2024-03-08T11:58:05;101133.28;;;14.55;66.05
85758;BME280;76202;52.626;4.746;2024-03-08T12:00:33;101117.94;;;14.56;66.91
85758;BME280;76202;52.626;4.746;2024-03-08T12:03:07;101120.84;;;14.54;67.46
85758;BME280;76202;52.626;4.746;2024-03-08T12:05:35;101117.31;;;14.53;66.00
85758;BME280;76202;52.626;4.746;2024-03-08T12:08:04;101107.38;;;14.54;66.99
85758;BME280;76202;52.626;4.746;2024-03-08T12:10:34;101111.31;;;14.51;65.89
85758;BME280;76202;52.626;4.746;2024-03-08T12:13:00;101101.78;;;14.49;66.00
85758;BME280;76202;52.626;4.746;2024-03-08T12:15:26;101097.03;;;14.58;66.87
85758;BME280;76202;52.626;4.746;2024-03-08T12:17:54;101100.16;;;14.61;66.82
85758;BME280;76202;52.626;4.746;2024-03-08T12:20:24;101078.63;;;14.61;67.33
85758;BME280;76202;52.626;4.746;2024-03-08T12:22:54;101075.28;;;14.59;66.61
85758;BME280;76202;52.626;4.746;2024-03-08T12:25:29;101071.38;;;14.55;66.63
85758;BME280;76202;52.626;4.746;2024-03-08T12:27:55;101067.84;;;14.55;65.98
85758;BME280;76202;52.626;4.746;2024-03-08T12:30:25;101061.81;;;14.52;66.53
85758;BME280;76202;52.626;4.746;2024-03-08T12:32:55;101053.75;;;14.52;67.01
85758;BME280;76202;52.626;4.746;2024-03-08T12:35:28;101038.44;;;14.46;65.69
85758;BME280;76202;52.626;4.746;2024-03-08T12:37:55;101040.31;;;14.46;67.06
85758;BME280;76202;52.626;4.746;2024-03-08T12:40:26;101037.59;;;14.52;66.27
85758;BME280;76202;52.626;4.746;2024-03-08T12:42:54;101027.47;;;14.48;66.61
85758;BME280;76202;52.626;4.746;2024-03-08T12:45:20;101030.38;;;14.46;65.94
85758;BME280;76202;52.626;4.746;2024-03-08T12:47:47;101022.28;;;14.40;65.71
85758;BME280;76202;52.626;4.746;2024-03-08T12:50:13;101018.13;;;14.44;67.04
85758;BME280;76202;52.626;4.746;2024-03-08T12:52:38;101016.50;;;14.36;65.50
85758;BME280;76202;52.626;4.746;2024-03-08T12:55:04;101014.63;;;14.37;66.35
85758;BME280;76202;52.626;4.746;2024-03-08T12:57:35;101017.72;;;14.34;66.16